sensor_id;sensor_type;location;lat;lon;timestamp;temperature;humidity
7296;DHT22;40758;54.038;11.684;2022-09-27T05:19:31;20.40;99.90
7296;DHT22;40758;54.038;11.684;2022-09-27T05:22:00;20.50;99.90
7296;DHT22;40758;54.038;11.684;2022-09-27T05:24:29;20.60;99.90
7296;DHT22;40758;54.038;11.684;2022-09-27T05:26:58;20.70;99.90
7296;DHT22;40758;54.038;11.684;2022-09-27T05:29:27;20.70;99.90
7296;DHT22;40758;54.038;11.684;2022-09-27T05:31:55;20.80;99.90
7296;DHT22;40758;54.038;11.684;2022-09-27T05:34:24;20.80;99.90
7296;DHT22;40758;54.038;11.684;2022-09-27T05:36:56;20.90;99.90
7296;DHT22;40758;54.038;11.684;2022-09-27T05:39:24;20.90;99.90
7296;DHT22;40758;54.038;11.684;2022-09-27T05:41:53;21.00;99.90
7296;DHT22;40758;54.038;11.684;2022-09-27T05:44:23;21.00;99.90
7296;DHT22;40758;54.038;11.684;2022-09-27T05:46:52;21.10;99.90
7296;DHT22;40758;54.038;11.684;2022-09-27T05:49:20;21.10;99.90
7296;DHT22;40758;54.038;11.684;2022-09-27T05:51:48;21.10;99.90
7296;DHT22;40758;54.038;11.684;2022-09-27T05:54:19;21.10;99.90
7296;DHT22;40758;54.038;11.684;2022-09-27T05:56:47;21.10;99.90
7296;DHT22;40758;54.038;11.684;2022-09-27T05:59:17;21.10;99.90
7296;DHT22;40758;54.038;11.684;2022-09-27T06:01:45;21.10;99.90
7296;DHT22;40758;54.038;11.684;2022-09-27T06:04:14;21.10;99.90
7296;DHT22;40758;54.038;11.684;2022-09-27T06:06:42;21.00;99.90
7296;DHT22;40758;54.038;11.684;2022-09-27T06:09:11;21.00;99.90
7296;DHT22;40758;54.038;11.684;2022-09-27T06:11:42;21.00;99.90
7296;DHT22;40758;54.038;11.684;2022-09-27T06:14:11;21.00;99.90
7296;DHT22;40758;54.038;11.684;2022-09-27T06:16:42;21.00;99.90
7296;DHT22;40758;54.038;11.684;2022-09-27T06:19:11;21.00;99.90
7296;DHT22;40758;54.038;11.684;2022-09-27T06:21:40;21.00;99.90
7296;DHT22;40758;54.038;11.684;2022-09-27T06:24:09;21.00;99.90
7296;DHT22;40758;54.038;11.684;2022-09-27T06:26:38;21.00;99.90
7296;DHT22;40758;54.038;11.684;2022-09-27T06:29:08;21.00;99.90
7296;DHT22;40758;54.038;11.684;2022-09-27T06:31:37;21.00;99.90
7296;DHT22;40758;54.038;11.684;2022-09-27T06:34:06;21.00;99.90
7296;DHT22;40758;54.038;11.684;2022-09-27T06:36:34;20.90;99.90
7296;DHT22;40758;54.038;11.684;2022-09-27T06:39:04;20.90;99.90
7296;DHT22;40758;54.038;11.684;2022-09-27T06:41:36;20.90;99.90
7296;DHT22;40758;54.038;11.684;2022-09-27T06:44:04;20.90;99.90
7296;DHT22;40758;54.038;11.684;2022-09-27T06:46:35;20.90;99.90
7296;DHT22;40758;54.038;11.684;2022-09-27T06:49:04;20.90;99.90
7296;DHT22;40758;54.038;11.684;2022-09-27T06:51:33;20.90;99.90
7296;DHT22;40758;54.038;11.684;2022-09-27T06:54:02;20.90;99.90
7296;DHT22;40758;54.038;11.684;2022-09-27T06:56:30;20.90;99.90
7296;DHT22;40758;54.038;11.684;2022-09-27T06:58:59;20.90;99.90
7296;DHT22;40758;54.038;11.684;2022-09-27T07:01:46;20.90;99.90
7296;DHT22;40758;54.038;11.684;2022-09-27T07:04:15;20.90;99.90
7296;DHT22;40758;54.038;11.684;2022-09-27T07:06:44;20.90;99.90
7296;DHT22;40758;54.038;11.684;2022-09-27T07:09:13;20.90;99.90
7296;DHT22;40758;54.038;11.684;2022-09-27T07:11:42;20.90;99.90
7296;DHT22;40758;54.038;11.684;2022-09-27T07:14:11;20.90;99.90
7296;DHT22;40758;54.038;11.684;2022-09-27T07:16:40;20.90;99.90
7296;DHT22;40758;54.038;11.684;2022-09-27T07:19:11;20.90;99.90
7296;DHT22;40758;54.038;11.684;2022-09-27T07:21:41;20.90;99.90
7296;DHT22;40758;54.038;11.684;2022-09-27T07:24:10;20.90;99.90
7296;DHT22;40758;54.038;11.684;2022-09-27T07:26:39;20.90;99.90
7296;DHT22;40758;54.038;11.684;2022-09-27T07:29:08;20.90;99.90
7296;DHT22;40758;54.038;11.684;2022-09-27T07:31:36;20.90;99.90
7296;DHT22;40758;54.038;11.684;2022-09-27T07:34:07;20.90;99.90
7296;DHT22;40758;54.038;11.684;2022-09-27T07:36:39;20.90;99.90
7296;DHT22;40758;54.038;11.684;2022-09-27T07:39:08;20.90;99.90
7296;DHT22;40758;54.038;11.684;2022-09-27T07:41:37;20.80;99.90
7296;DHT22;40758;54.038;11.684;2022-09-27T07:44:06;20.80;99.90
7296;DHT22;40758;54.038;11.684;2022-09-27T07:46:35;20.80;99.90
7296;DHT22;40758;54.038;11.684;2022-09-27T07:49:04;20.80;99.90
7296;DHT22;40758;54.038;11.684;2022-09-27T07:51:32;20.80;99.90
7296;DHT22;40758;54.038;11.684;2022-09-27T07:54:03;20.80;99.90
7296;DHT22;40758;54.038;11.684;2022-09-27T07:56:34;20.80;99.90
7296;DHT22;40758;54.038;11.684;2022-09-27T07:59:02;20.80;99.90
7296;DHT22;40758;54.038;11.684;2022-09-27T08:01:31;20.80;99.90
7296;DHT22;40758;54.038;11.684;2022-09-27T08:04:01;20.80;99.90
7296;DHT22;40758;54.038;11.684;2022-09-27T08:06:29;20.70;99.90
7296;DHT22;40758;54.038;11.684;2022-09-27T08:08:59;20.80;99.90
7296;DHT22;40758;54.038;11.684;2022-09-27T08:11:30;20.70;99.90
7296;DHT22;40758;54.038;11.684;2022-09-27T08:13:59;20.80;99.90
7296;DHT22;40758;54.038;11.684;2022-09-27T08:16:28;20.80;99.90
7296;DHT22;40758;54.038;11.684;2022-09-27T08:19:02;20.80;99.90
7296;DHT22;40758;54.038;11.684;2022-09-27T08:21:34;20.70;99.90
7296;DHT22;40758;54.038;11.684;2022-09-27T08:24:02;20.70;99.90
7296;DHT22;40758;54.038;11.684;2022-09-27T08:26:33;20.70;99.90
7296;DHT22;40758;54.038;11.684;2022-09-27T08:29:03;20.70;99.90
7296;DHT22;40758;54.038;11.684;2022-09-27T08:31:31;20.70;99.90
7296;DHT22;40758;54.038;11.684;2022-09-27T08:34:01;20.70;99.90
7296;DHT22;40758;54.038;11.684;2022-09-27T08:36:30;20.70;99.90
7296;DHT22;40758;54.038;11.684;2022-09-27T08:39:05;20.70;99.90
7296;DHT22;40758;54.038;11.684;2022-09-27T08:41:36;20.70;99.90
7296;DHT22;40758;54.038;11.684;2022-09-27T08:44:10;20.70;99.90
7296;DHT22;40758;54.038;11.684;2022-09-27T08:46:50;20.70;99.90
7296;DHT22;40758;54.038;11.684;2022-09-27T08:49:28;20.60;99.90
7296;DHT22;40758;54.038;11.684;2022-09-27T08:52:03;20.60;99.90
7296;DHT22;40758;54.038;11.684;2022-09-27T08:54:35;20.60;99.90
7296;DHT22;40758;54.038;11.684;2022-09-27T08:57:08;20.60;99.90
7296;DHT22;40758;54.038;11.684;2022-09-27T08:59:39;20.70;99.90
7296;DHT22;40758;54.038;11.684;2022-09-27T09:02:12;20.70;99.90
7296;DHT22;40758;54.038;11.684;2022-09-27T09:04:45;20.70;99.90
7296;DHT22;40758;54.038;11.684;2022-09-27T09:07:24;20.70;99.90
7296;DHT22;40758;54.038;11.684;2022-09-27T09:10:05;20.70;99.90
7296;DHT22;40758;54.038;11.684;2022-09-27T09:13:07;20.70;99.90
7296;DHT22;40758;54.038;11.684;2022-09-27T09:15:44;20.70;99.90
7296;DHT22;40758;54.038;11.684;2022-09-27T09:18:30;20.70;99.90
7296;DHT22;40758;54.038;11.684;2022-09-27T09:21:13;20.70;99.90
7296;DHT22;40758;54.038;11.684;2022-09-27T09:23:55;20.70;99.90
7296;DHT22;40758;54.038;11.684;2022-09-27T09:26:41;20.70;99.90
7296;DHT22;40758;54.038;11.684;2022-09-27T09:29:21;20.60;99.90
7296;DHT22;40758;54.038;11.684;2022-09-27T09:32:03;20.70;99.90
7296;DHT22;40758;54.038;11.684;2022-09-27T09:34:41;20.70;99.90
7296;DHT22;40758;54.038;11.684;2022-09-27T09:37:14;20.70;99.90
7296;DHT22;40758;54.038;11.684;2022-09-27T09:39:47;20.70;99.90
7296;DHT22;40758;54.038;11.684;2022-09-27T09:42:22;20.90;99.90
7296;DHT22;40758;54.038;11.684;2022-09-27T09:44:56;21.10;99.90
7296;DHT22;40758;54.038;11.684;2022-09-27T09:47:30;21.00;99.90
7296;DHT22;40758;54.038;11.684;2022-09-27T09:50:13;21.00;99.90
7296;DHT22;40758;54.038;11.684;2022-09-27T09:52:45;20.90;99.90
7296;DHT22;40758;54.038;11.684;2022-09-27T09:55:21;20.90;99.90
7296;DHT22;40758;54.038;11.684;2022-09-27T09:57:55;20.90;99.90
7296;DHT22;40758;54.038;11.684;2022-09-27T10:00:32;20.90;99.90
7296;DHT22;40758;54.038;11.684;2022-09-27T10:03:01;20.90;99.90
7296;DHT22;40758;54.038;11.684;2022-09-27T10:05:30;20.90;99.90
7296;DHT22;40758;54.038;11.684;2022-09-27T10:08:01;20.90;99.90
7296;DHT22;40758;54.038;11.684;2022-09-27T10:10:32;20.90;99.90
7296;DHT22;40758;54.038;11.684;2022-09-27T10:13:01;20.90;99.90
7296;DHT22;40758;54.038;11.684;2022-09-27T10:15:32;20.90;99.90
7296;DHT22;40758;54.038;11.684;2022-09-27T10:18:01;20.80;99.90
7296;DHT22;40758;54.038;11.684;2022-09-27T10:20:30;20.80;99.90
7296;DHT22;40758;54.038;11.684;2022-09-27T10:23:05;20.80;99.90
7296;DHT22;40758;54.038;11.684;2022-09-27T10:25:45;20.80;99.90
7296;DHT22;40758;54.038;11.684;2022-09-27T10:28:30;20.80;99.90
7296;DHT22;40758;54.038;11.684;2022-09-27T10:31:04;20.80;99.90
7296;DHT22;40758;54.038;11.684;2022-09-27T10:33:36;20.90;99.90
7296;DHT22;40758;54.038;11.684;2022-09-27T10:36:21;20.90;99.90
7296;DHT22;40758;54.038;11.684;2022-09-27T10:38:55;20.90;99.90
7296;DHT22;40758;54.038;11.684;2022-09-27T10:41:25;20.90;99.90
7296;DHT22;40758;54.038;11.684;2022-09-27T10:44:16;20.90;99.90
7296;DHT22;40758;54.038;11.684;2022-09-27T10:46:49;20.90;99.90
7296;DHT22;40758;54.038;11.684;2022-09-27T10:49:24;20.90;99.90
7296;DHT22;40758;54.038;11.684;2022-09-27T10:51:59;20.90;99.90
7296;DHT22;40758;54.038;11.684;2022-09-27T10:54:31;20.90;99.90
7296;DHT22;40758;54.038;11.684;2022-09-27T10:57:01;20.90;99.90
7296;DHT22;40758;54.038;11.684;2022-09-27T10:59:32;20.80;99.90
7296;DHT22;40758;54.038;11.684;2022-09-27T11:02:05;20.80;99.90
7296;DHT22;40758;54.038;11.684;2022-09-27T11:05:01;20.80;99.90
7296;DHT22;40758;54.038;11.684;2022-09-27T11:07:33;20.80;99.90
7296;DHT22;40758;54.038;11.684;2022-09-27T11:10:18;20.80;99.90
7296;DHT22;40758;54.038;11.684;2022-09-27T11:13:07;20.80;99.90
7296;DHT22;40758;54.038;11.684;2022-09-27T11:15:42;20.80;99.90
7296;DHT22;40758;54.038;11.684;2022-09-27T11:18:27;20.80;99.90
7296;DHT22;40758;54.038;11.684;2022-09-27T11:21:06;20.80;99.90
7296;DHT22;40758;54.038;11.684;2022-09-27T11:23:46;20.80;99.90
7296;DHT22;40758;54.038;11.684;2022-09-27T11:26:30;20.90;99.90
7296;DHT22;40758;54.038;11.684;2022-09-27T11:29:09;20.90;99.90
7296;DHT22;40758;54.038;11.684;2022-09-27T11:31:48;21.00;99.90
7296;DHT22;40758;54.038;11.684;2022-09-27T11:34:42;21.00;99.90
7296;DHT22;40758;54.038;11.684;2022-09-27T11:37:26;21.00;99.90
7296;DHT22;40758;54.038;11.684;2022-09-27T11:40:11;21.00;99.90
7296;DHT22;40758;54.038;11.684;2022-09-27T11:43:03;20.90;99.90
7296;DHT22;40758;54.038;11.684;2022-09-27T11:45:44;20.90;99.90
7296;DHT22;40758;54.038;11.684;2022-09-27T11:48:44;20.90;99.90
7296;DHT22;40758;54.038;11.684;2022-09-27T11:51:35;20.90;99.90
7296;DHT22;40758;54.038;11.684;2022-09-27T11:54:19;20.90;99.90
7296;DHT22;40758;54.038;11.684;2022-09-27T11:57:10;20.90;99.90
7296;DHT22;40758;54.038;11.684;2022-09-27T11:59:58;20.90;99.90
7296;DHT22;40758;54.038;11.684;2022-09-27T12:02:44;20.90;99.90
7296;DHT22;40758;54.038;11.684;2022-09-27T12:05:36;20.80;99.90
7296;DHT22;40758;54.038;11.684;2022-09-27T12:08:30;20.80;99.90
7296;DHT22;40758;54.038;11.684;2022-09-27T12:11:08;20.80;99.90
7296;DHT22;40758;54.038;11.684;2022-09-27T12:13:45;20.80;99.90
7296;DHT22;40758;54.038;11.684;2022-09-27T12:16:18;20.80;99.90
7296;DHT22;40758;54.038;11.684;2022-09-27T12:18:49;20.90;99.90
7296;DHT22;40758;54.038;11.684;2022-09-27T12:21:20;20.80;99.90
7296;DHT22;40758;54.038;11.684;2022-09-27T12:23:53;20.80;99.90
7296;DHT22;40758;54.038;11.684;2022-09-27T12:26:25;20.80;99.90
7296;DHT22;40758;54.038;11.684;2022-09-27T12:28:58;20.80;99.90
7296;DHT22;40758;54.038;11.684;2022-09-27T12:31:33;20.90;99.90
7296;DHT22;40758;54.038;11.684;2022-09-27T12:34:10;20.90;99.90
7296;DHT22;40758;54.038;11.684;2022-09-27T12:36:48;20.90;99.90
7296;DHT22;40758;54.038;11.684;2022-09-27T12:39:25;20.90;99.90
7296;DHT22;40758;54.038;11.684;2022-09-27T12:42:13;20.90;99.90
7296;DHT22;40758;54.038;11.684;2022-09-27T12:44:45;20.90;99.90
7296;DHT22;40758;54.038;11.684;2022-09-27T12:50:14;20.90;99.90
7296;DHT22;40758;54.038;11.684;2022-09-27T12:52:56;20.90;99.90
7296;DHT22;40758;54.038;11.684;2022-09-27T12:55:57;20.90;99.90
7296;DHT22;40758;54.038;11.684;2022-09-27T12:58:42;20.90;99.90
7296;DHT22;40758;54.038;11.684;2022-09-27T13:01:39;20.90;99.90
7296;DHT22;40758;54.038;11.684;2022-09-27T13:04:26;20.90;99.90
7296;DHT22;40758;54.038;11.684;2022-09-27T13:07:13;20.90;99.90
7296;DHT22;40758;54.038;11.684;2022-09-27T13:09:57;20.90;99.90
7296;DHT22;40758;54.038;11.684;2022-09-27T13:12:35;21.00;99.90
7296;DHT22;40758;54.038;11.684;2022-09-27T13:15:11;21.00;99.90
7296;DHT22;40758;54.038;11.684;2022-09-27T13:17:47;21.00;99.90
7296;DHT22;40758;54.038;11.684;2022-09-27T13:26:23;21.00;99.90
7296;DHT22;40758;54.038;11.684;2022-09-27T13:29:21;21.00;99.90
7296;DHT22;40758;54.038;11.684;2022-09-27T13:34:50;21.00;99.90
7296;DHT22;40758;54.038;11.684;2022-09-27T13:43:18;21.00;99.90
7296;DHT22;40758;54.038;11.684;2022-09-27T13:46:14;21.00;99.90
7296;DHT22;40758;54.038;11.684;2022-09-27T13:48:48;21.00;99.90
7296;DHT22;40758;54.038;11.684;2022-09-27T13:51:23;20.90;99.90
7296;DHT22;40758;54.038;11.684;2022-09-27T13:54:01;20.90;99.90
7296;DHT22;40758;54.038;11.684;2022-09-27T13:56:47;20.90;99.90
7296;DHT22;40758;54.038;11.684;2022-09-27T13:59:25;20.90;99.90
7296;DHT22;40758;54.038;11.684;2022-09-27T14:02:05;20.90;99.90
7296;DHT22;40758;54.038;11.684;2022-09-27T14:04:45;20.90;99.90
7296;DHT22;40758;54.038;11.684;2022-09-27T14:07:17;20.90;99.90
7296;DHT22;40758;54.038;11.684;2022-09-27T14:09:52;20.90;99.90
7296;DHT22;40758;54.038;11.684;2022-09-27T14:12:23;20.90;99.90
7296;DHT22;40758;54.038;11.684;2022-09-27T14:14:55;20.90;99.90
7296;DHT22;40758;54.038;11.684;2022-09-27T14:17:27;20.90;99.90
7296;DHT22;40758;54.038;11.684;2022-09-27T14:19:57;20.90;99.90
7296;DHT22;40758;54.038;11.684;2022-09-27T14:22:25;20.90;99.90
7296;DHT22;40758;54.038;11.684;2022-09-27T14:24:54;20.90;99.90
7296;DHT22;40758;54.038;11.684;2022-09-27T14:27:25;20.90;99.90
7296;DHT22;40758;54.038;11.684;2022-09-27T14:29:54;20.90;99.90
7296;DHT22;40758;54.038;11.684;2022-09-27T14:32:26;20.90;99.90
7296;DHT22;40758;54.038;11.684;2022-09-27T14:35:04;20.90;99.90
7296;DHT22;40758;54.038;11.684;2022-09-27T14:37:59;20.90;99.90
7296;DHT22;40758;54.038;11.684;2022-09-27T14:40:53;20.90;99.90
7296;DHT22;40758;54.038;11.684;2022-09-27T14:43:25;20.90;99.90
7296;DHT22;40758;54.038;11.684;2022-09-27T14:45:57;20.90;99.90
7296;DHT22;40758;54.038;11.684;2022-09-27T14:48:30;20.90;99.90
7296;DHT22;40758;54.038;11.684;2022-09-27T14:51:01;20.90;99.90
7296;DHT22;40758;54.038;11.684;2022-09-27T14:53:40;20.90;99.90
7296;DHT22;40758;54.038;11.684;2022-09-27T14:56:13;20.90;99.90
7296;DHT22;40758;54.038;11.684;2022-09-27T14:58:45;20.80;99.90
7296;DHT22;40758;54.038;11.684;2022-09-27T15:01:14;20.80;99.90
7296;DHT22;40758;54.038;11.684;2022-09-27T15:03:47;20.80;99.90
7296;DHT22;40758;54.038;11.684;2022-09-27T15:06:16;20.80;99.90
7296;DHT22;40758;54.038;11.684;2022-09-27T15:08:46;20.80;99.90
7296;DHT22;40758;54.038;11.684;2022-09-27T15:11:16;20.80;99.90
7296;DHT22;40758;54.038;11.684;2022-09-27T15:13:46;20.80;99.90
7296;DHT22;40758;54.038;11.684;2022-09-27T15:16:19;20.80;99.90
7296;DHT22;40758;54.038;11.684;2022-09-27T15:18:59;20.80;99.90
7296;DHT22;40758;54.038;11.684;2022-09-27T15:21:30;20.80;99.90
7296;DHT22;40758;54.038;11.684;2022-09-27T15:24:00;20.80;99.90
7296;DHT22;40758;54.038;11.684;2022-09-27T15:26:33;20.80;99.90
7296;DHT22;40758;54.038;11.684;2022-09-27T15:29:04;20.80;99.90
7296;DHT22;40758;54.038;11.684;2022-09-27T15:31:34;20.80;99.90
7296;DHT22;40758;54.038;11.684;2022-09-27T15:34:04;20.80;99.90
7296;DHT22;40758;54.038;11.684;2022-09-27T15:36:49;20.80;99.90
7296;DHT22;40758;54.038;11.684;2022-09-27T15:39:25;20.80;99.90
7296;DHT22;40758;54.038;11.684;2022-09-27T15:41:59;20.80;99.90
7296;DHT22;40758;54.038;11.684;2022-09-27T15:44:38;20.80;99.90
7296;DHT22;40758;54.038;11.684;2022-09-27T15:50:34;20.90;99.90
7296;DHT22;40758;54.038;11.684;2022-09-27T15:53:04;20.90;99.90
7296;DHT22;40758;54.038;11.684;2022-09-27T15:55:33;20.90;99.90
7296;DHT22;40758;54.038;11.684;2022-09-27T15:58:06;20.90;99.90
7296;DHT22;40758;54.038;11.684;2022-09-27T16:00:52;20.90;99.90
7296;DHT22;40758;54.038;11.684;2022-09-27T16:03:25;20.90;99.90
7296;DHT22;40758;54.038;11.684;2022-09-27T16:05:56;20.90;99.90
7296;DHT22;40758;54.038;11.684;2022-09-27T16:08:25;20.90;99.90
7296;DHT22;40758;54.038;11.684;2022-09-27T16:10:55;20.90;99.90
7296;DHT22;40758;54.038;11.684;2022-09-27T16:13:25;20.90;99.90
7296;DHT22;40758;54.038;11.684;2022-09-27T16:15:58;20.90;99.90
7296;DHT22;40758;54.038;11.684;2022-09-27T16:18:30;20.90;99.90
7296;DHT22;40758;54.038;11.684;2022-09-27T16:21:01;20.90;99.90
7296;DHT22;40758;54.038;11.684;2022-09-27T16:23:29;20.90;99.90
7296;DHT22;40758;54.038;11.684;2022-09-27T16:25:57;20.90;99.90
7296;DHT22;40758;54.038;11.684;2022-09-27T16:28:26;20.90;99.90
7296;DHT22;40758;54.038;11.684;2022-09-27T16:31:00;20.80;99.90
7296;DHT22;40758;54.038;11.684;2022-09-27T16:33:30;20.80;99.90
7296;DHT22;40758;54.038;11.684;2022-09-27T16:36:03;20.80;99.90
7296;DHT22;40758;54.038;11.684;2022-09-27T16:38:34;20.90;99.90
7296;DHT22;40758;54.038;11.684;2022-09-27T16:41:03;20.80;99.90
7296;DHT22;40758;54.038;11.684;2022-09-27T16:43:31;20.90;99.90
7296;DHT22;40758;54.038;11.684;2022-09-27T16:46:03;20.90;99.90
7296;DHT22;40758;54.038;11.684;2022-09-27T16:48:34;20.90;99.90
7296;DHT22;40758;54.038;11.684;2022-09-27T16:51:05;20.90;99.90
7296;DHT22;40758;54.038;11.684;2022-09-27T16:53:55;20.90;99.90
7296;DHT22;40758;54.038;11.684;2022-09-27T16:56:24;20.90;99.90
7296;DHT22;40758;54.038;11.684;2022-09-27T16:58:54;20.90;99.90
7296;DHT22;40758;54.038;11.684;2022-09-27T17:01:23;20.90;99.90
7296;DHT22;40758;54.038;11.684;2022-09-27T17:03:53;20.90;99.90
7296;DHT22;40758;54.038;11.684;2022-09-27T17:06:24;20.90;99.90
7296;DHT22;40758;54.038;11.684;2022-09-27T17:08:54;20.90;99.90
7296;DHT22;40758;54.038;11.684;2022-09-27T17:11:23;20.90;99.90
7296;DHT22;40758;54.038;11.684;2022-09-27T17:13:54;20.90;99.90
7296;DHT22;40758;54.038;11.684;2022-09-27T17:16:23;20.90;99.90
7296;DHT22;40758;54.038;11.684;2022-09-27T17:18:52;20.90;99.90
7296;DHT22;40758;54.038;11.684;2022-09-27T17:21:26;20.90;99.90
7296;DHT22;40758;54.038;11.684;2022-09-27T17:23:58;20.90;99.90
7296;DHT22;40758;54.038;11.684;2022-09-27T17:26:27;20.90;99.90
7296;DHT22;40758;54.038;11.684;2022-09-27T17:28:57;20.90;99.90
7296;DHT22;40758;54.038;11.684;2022-09-27T17:31:28;20.90;99.90
7296;DHT22;40758;54.038;11.684;2022-09-27T17:34:01;20.90;99.90
7296;DHT22;40758;54.038;11.684;2022-09-27T17:36:32;20.90;99.90
7296;DHT22;40758;54.038;11.684;2022-09-27T17:39:03;20.90;99.90
7296;DHT22;40758;54.038;11.684;2022-09-27T17:41:33;20.90;99.90
7296;DHT22;40758;54.038;11.684;2022-09-27T17:44:05;20.90;99.90
7296;DHT22;40758;54.038;11.684;2022-09-27T17:46:37;20.90;99.90
7296;DHT22;40758;54.038;11.684;2022-09-27T17:49:05;20.90;99.90
7296;DHT22;40758;54.038;11.684;2022-09-27T17:51:52;20.90;99.90
7296;DHT22;40758;54.038;11.684;2022-09-27T17:54:21;20.90;99.90
7296;DHT22;40758;54.038;11.684;2022-09-27T17:56:53;20.90;99.90
7296;DHT22;40758;54.038;11.684;2022-09-27T17:59:22;20.90;99.90
7296;DHT22;40758;54.038;11.684;2022-09-27T18:01:51;20.90;99.90
7296;DHT22;40758;54.038;11.684;2022-09-27T18:04:20;20.90;99.90
7296;DHT22;40758;54.038;11.684;2022-09-27T18:06:49;20.90;99.90
7296;DHT22;40758;54.038;11.684;2022-09-27T18:09:19;20.90;99.90
7296;DHT22;40758;54.038;11.684;2022-09-27T18:11:47;20.90;99.90
7296;DHT22;40758;54.038;11.684;2022-09-27T18:14:16;20.90;99.90
7296;DHT22;40758;54.038;11.684;2022-09-27T18:16:46;20.90;99.90
7296;DHT22;40758;54.038;11.684;2022-09-27T18:19:15;20.90;99.90
7296;DHT22;40758;54.038;11.684;2022-09-27T18:21:44;20.90;99.90
7296;DHT22;40758;54.038;11.684;2022-09-27T18:24:12;20.90;99.90
7296;DHT22;40758;54.038;11.684;2022-09-27T18:26:42;20.90;99.90
7296;DHT22;40758;54.038;11.684;2022-09-27T18:29:15;20.90;99.90
7296;DHT22;40758;54.038;11.684;2022-09-27T18:31:45;20.90;99.90
7296;DHT22;40758;54.038;11.684;2022-09-27T18:34:15;20.90;99.90
7296;DHT22;40758;54.038;11.684;2022-09-27T18:36:45;20.90;99.90
7296;DHT22;40758;54.038;11.684;2022-09-27T18:39:14;20.90;99.90
7296;DHT22;40758;54.038;11.684;2022-09-27T18:41:46;20.90;99.90
7296;DHT22;40758;54.038;11.684;2022-09-27T18:44:15;20.90;99.90
7296;DHT22;40758;54.038;11.684;2022-09-27T18:46:45;20.90;99.90
7296;DHT22;40758;54.038;11.684;2022-09-27T18:49:15;20.90;99.90
7296;DHT22;40758;54.038;11.684;2022-09-27T18:51:49;20.90;99.90
7296;DHT22;40758;54.038;11.684;2022-09-27T18:54:18;20.90;99.90
7296;DHT22;40758;54.038;11.684;2022-09-27T18:56:49;20.90;99.90
7296;DHT22;40758;54.038;11.684;2022-09-27T18:59:19;20.90;99.90
7296;DHT22;40758;54.038;11.684;2022-09-27T19:01:49;20.90;99.90
7296;DHT22;40758;54.038;11.684;2022-09-27T19:04:19;20.90;99.90
7296;DHT22;40758;54.038;11.684;2022-09-27T19:06:50;20.90;99.90
7296;DHT22;40758;54.038;11.684;2022-09-27T19:09:20;20.90;99.90
7296;DHT22;40758;54.038;11.684;2022-09-27T19:11:50;20.90;99.90
7296;DHT22;40758;54.038;11.684;2022-09-27T19:14:19;20.90;99.90
7296;DHT22;40758;54.038;11.684;2022-09-27T19:16:49;20.90;99.90
7296;DHT22;40758;54.038;11.684;2022-09-27T19:19:18;20.90;99.90
7296;DHT22;40758;54.038;11.684;2022-09-27T19:21:47;20.90;99.90
7296;DHT22;40758;54.038;11.684;2022-09-27T19:24:16;20.90;99.90
7296;DHT22;40758;54.038;11.684;2022-09-27T19:26:45;20.90;99.90
7296;DHT22;40758;54.038;11.684;2022-09-27T19:29:15;20.90;99.90
7296;DHT22;40758;54.038;11.684;2022-09-27T19:31:43;20.90;99.90
7296;DHT22;40758;54.038;11.684;2022-09-27T19:34:12;20.90;99.90
7296;DHT22;40758;54.038;11.684;2022-09-27T19:36:40;20.90;99.90
7296;DHT22;40758;54.038;11.684;2022-09-27T19:39:09;20.90;99.90
7296;DHT22;40758;54.038;11.684;2022-09-27T19:41:38;20.90;99.90
7296;DHT22;40758;54.038;11.684;2022-09-27T19:44:06;20.90;99.90
7296;DHT22;40758;54.038;11.684;2022-09-27T19:46:36;20.90;99.90
7296;DHT22;40758;54.038;11.684;2022-09-27T19:49:05;20.90;99.90
7296;DHT22;40758;54.038;11.684;2022-09-27T19:51:33;20.80;99.90
7296;DHT22;40758;54.038;11.684;2022-09-27T19:54:03;20.90;99.90
7296;DHT22;40758;54.038;11.684;2022-09-27T19:56:32;20.80;99.90
7296;DHT22;40758;54.038;11.684;2022-09-27T19:59:00;20.90;99.90
7296;DHT22;40758;54.038;11.684;2022-09-27T20:01:33;20.90;99.90
7296;DHT22;40758;54.038;11.684;2022-09-27T20:04:03;20.90;99.90
7296;DHT22;40758;54.038;11.684;2022-09-27T20:06:31;20.80;99.90
7296;DHT22;40758;54.038;11.684;2022-09-27T20:09:00;20.90;99.90
7296;DHT22;40758;54.038;11.684;2022-09-27T20:11:29;20.80;99.90
7296;DHT22;40758;54.038;11.684;2022-09-27T20:13:59;20.80;99.90
7296;DHT22;40758;54.038;11.684;2022-09-27T20:16:28;20.80;99.90
7296;DHT22;40758;54.038;11.684;2022-09-27T20:18:57;20.80;99.90
7296;DHT22;40758;54.038;11.684;2022-09-27T20:21:28;20.80;99.90
7296;DHT22;40758;54.038;11.684;2022-09-27T20:23:59;20.80;99.90
7296;DHT22;40758;54.038;11.684;2022-09-27T20:26:29;20.80;99.90
7296;DHT22;40758;54.038;11.684;2022-09-27T20:29:01;20.80;99.90
7296;DHT22;40758;54.038;11.684;2022-09-27T20:31:31;20.80;99.90
7296;DHT22;40758;54.038;11.684;2022-09-27T20:34:02;20.80;99.90
7296;DHT22;40758;54.038;11.684;2022-09-27T20:36:35;20.80;99.90
7296;DHT22;40758;54.038;11.684;2022-09-27T20:39:06;20.80;99.90
7296;DHT22;40758;54.038;11.684;2022-09-27T20:41:36;20.80;99.90
7296;DHT22;40758;54.038;11.684;2022-09-27T20:44:07;20.80;99.90
7296;DHT22;40758;54.038;11.684;2022-09-27T20:46:37;20.80;99.90
7296;DHT22;40758;54.038;11.684;2022-09-27T20:49:07;20.80;99.90
7296;DHT22;40758;54.038;11.684;2022-09-27T20:51:39;20.80;99.90
7296;DHT22;40758;54.038;11.684;2022-09-27T20:54:10;20.80;99.90
7296;DHT22;40758;54.038;11.684;2022-09-27T20:56:40;20.80;99.90
7296;DHT22;40758;54.038;11.684;2022-09-27T20:59:12;20.80;99.90
7296;DHT22;40758;54.038;11.684;2022-09-27T21:01:42;20.80;99.90
7296;DHT22;40758;54.038;11.684;2022-09-27T21:04:12;20.80;99.90
7296;DHT22;40758;54.038;11.684;2022-09-27T21:06:44;20.80;99.90
7296;DHT22;40758;54.038;11.684;2022-09-27T21:09:13;20.70;99.90
